METAR Data
IDs: Format: Raw Decoded Include TAF

Data at: 0827 UTC 01 Aug 2021

LEVT 010800Z 13002KT 9999 FEW025 SCT042 16/11 Q1019